createdAt,value
2022-07-31T00:00:01.580Z,6
2022-07-31T00:05:01.972Z,6
2022-07-31T00:10:01.484Z,7
2022-07-31T00:15:01.837Z,7
2022-07-31T00:20:02.333Z,7
2022-07-31T00:25:01.820Z,7
2022-07-31T00:30:02.164Z,5
2022-07-31T00:35:01.513Z,6
2022-07-31T00:40:01.886Z,5
2022-07-31T00:45:02.244Z,6
2022-07-31T00:50:02.069Z,7
2022-07-31T00:55:01.416Z,6
2022-07-31T01:00:01.902Z,7
2022-07-31T01:05:02.255Z,5
2022-07-31T01:10:01.643Z,4
2022-07-31T01:15:02.074Z,5
2022-07-31T01:20:01.507Z,7
2022-07-31T01:25:01.854Z,5
2022-07-31T01:30:02.193Z,7
2022-07-31T01:35:01.563Z,6
2022-07-31T01:40:01.951Z,6
2022-07-31T01:45:01.352Z,6
2022-07-31T01:50:01.690Z,6
2022-07-31T01:55:02.031Z,5
2022-07-31T02:00:01.413Z,6
2022-07-31T02:05:01.823Z,6
2022-07-31T02:10:02.223Z,5
2022-07-31T02:15:01.570Z,7
2022-07-31T02:20:01.996Z,6
2022-07-31T02:25:01.358Z,7
2022-07-31T02:30:01.697Z,6
2022-07-31T02:35:02.165Z,6
2022-07-31T02:40:01.676Z,6
2022-07-31T02:45:02.023Z,6
2022-07-31T02:50:01.363Z,4
2022-07-31T02:55:01.706Z,5
2022-07-31T03:00:02.150Z,4
2022-07-31T03:05:01.464Z,6
2022-07-31T03:10:01.844Z,6
2022-07-31T03:15:02.187Z,5
2022-07-31T03:20:01.624Z,6
2022-07-31T03:25:02.095Z,6
2022-07-31T03:30:01.449Z,5
2022-07-31T03:35:01.808Z,5
2022-07-31T03:40:02.315Z,4
2022-07-31T03:45:01.668Z,4
2022-07-31T03:50:02.008Z,3
2022-07-31T03:55:01.455Z,6
2022-07-31T04:00:01.820Z,4
2022-07-31T04:05:03.941Z,5
2022-07-31T04:10:02.215Z,5
2022-07-31T04:15:01.574Z,5
2022-07-31T04:20:02.253Z,5
2022-07-31T04:25:01.994Z,5
2022-07-31T04:30:02.310Z,4
2022-07-31T04:35:01.456Z,5
2022-07-31T04:40:01.840Z,4
2022-07-31T04:45:02.213Z,4
2022-07-31T04:50:01.617Z,4
2022-07-31T04:55:01.989Z,4
2022-07-31T05:00:01.632Z,5
2022-07-31T05:05:02.083Z,3
2022-07-31T05:10:01.585Z,5
2022-07-31T05:15:01.957Z,5
2022-07-31T05:20:01.416Z,4
2022-07-31T05:25:01.761Z,5
2022-07-31T05:30:02.234Z,4
2022-07-31T05:35:01.582Z,4
2022-07-31T05:40:02.090Z,5
2022-07-31T05:45:01.451Z,4
2022-07-31T05:50:01.792Z,4
2022-07-31T05:55:02.265Z,3
2022-07-31T06:00:04.056Z,6
2022-07-31T06:05:01.818Z,4
2022-07-31T06:10:02.007Z,3
2022-07-31T06:15:01.383Z,5
2022-07-31T06:20:01.824Z,4
2022-07-31T06:25:02.190Z,6
2022-07-31T06:30:01.739Z,4
2022-07-31T06:35:02.116Z,5
2022-07-31T06:40:01.496Z,5
2022-07-31T06:45:01.547Z,5
2022-07-31T06:50:02.008Z,4
2022-07-31T06:55:01.376Z,6
2022-07-31T07:00:05.687Z,4
2022-07-31T07:05:05.834Z,4
2022-07-31T07:10:01.448Z,5
2022-07-31T07:15:01.819Z,3
2022-07-31T07:20:02.238Z,6
2022-07-31T07:25:01.582Z,4
2022-07-31T07:30:01.934Z,5
2022-07-31T07:35:02.400Z,6
2022-07-31T07:40:03.476Z,5
2022-07-31T07:45:07.882Z,6
2022-07-31T07:50:01.754Z,6
2022-07-31T07:55:02.122Z,8
2022-07-31T08:00:01.493Z,6
2022-07-31T08:05:01.854Z,6
2022-07-31T08:10:02.355Z,6
2022-07-31T08:15:01.719Z,7
2022-07-31T08:20:02.146Z,7
2022-07-31T08:25:05.346Z,7
2022-07-31T08:30:01.423Z,7
2022-07-31T08:35:01.786Z,8
2022-07-31T08:40:02.193Z,8
2022-07-31T08:45:01.546Z,7
2022-07-31T08:50:01.874Z,6
2022-07-31T08:55:02.213Z,7
2022-07-31T09:00:01.573Z,8
2022-07-31T09:05:01.961Z,9
2022-07-31T09:10:01.351Z,9
2022-07-31T09:15:01.711Z,7
2022-07-31T09:20:02.148Z,7
2022-07-31T09:25:01.501Z,6
2022-07-31T09:30:01.972Z,7
2022-07-31T09:35:01.311Z,8
2022-07-31T09:40:01.945Z,7
2022-07-31T09:45:01.343Z,8
2022-07-31T09:50:01.694Z,7
2022-07-31T09:55:02.046Z,6
2022-07-31T10:00:01.814Z,10
2022-07-31T10:05:02.167Z,9
2022-07-31T10:10:01.560Z,9
2022-07-31T10:15:02.057Z,9
2022-07-31T10:20:01.552Z,9
2022-07-31T10:25:02.061Z,10
2022-07-31T10:30:01.422Z,8
2022-07-31T10:35:01.753Z,11
2022-07-31T10:40:02.149Z,11
2022-07-31T10:45:01.519Z,9
2022-07-31T10:50:01.855Z,11
2022-07-31T10:55:02.330Z,10
2022-07-31T11:00:01.707Z,9
2022-07-31T11:05:02.182Z,10
2022-07-31T11:10:01.698Z,10
2022-07-31T11:15:02.062Z,7
2022-07-31T11:20:01.516Z,8
2022-07-31T11:25:01.855Z,8
2022-07-31T11:30:05.677Z,9
2022-07-31T11:35:02.400Z,8
2022-07-31T11:40:01.778Z,9
2022-07-31T11:45:01.987Z,7
2022-07-31T11:50:01.861Z,7
2022-07-31T11:55:08.170Z,8
2022-07-31T12:00:01.489Z,7
2022-07-31T12:05:01.629Z,8
2022-07-31T12:10:03.673Z,8
2022-07-31T12:15:02.176Z,7
2022-07-31T12:20:01.737Z,9
2022-07-31T12:25:06.049Z,8
2022-07-31T12:30:02.117Z,9
2022-07-31T12:35:01.494Z,9
2022-07-31T12:40:01.911Z,8
2022-07-31T12:45:19.340Z,9
2022-07-31T12:50:01.905Z,8
2022-07-31T12:55:02.295Z,8
2022-07-31T13:00:01.725Z,9
2022-07-31T13:05:02.227Z,9
2022-07-31T13:10:20.901Z,9
2022-07-31T13:15:01.458Z,10
2022-07-31T13:20:01.895Z,6
2022-07-31T13:25:02.365Z,6
2022-07-31T13:30:01.984Z,10
2022-07-31T13:35:25.456Z,7
2022-07-31T13:40:02.118Z,6
2022-07-31T13:45:04.997Z,7
2022-07-31T13:50:01.480Z,8
2022-07-31T13:55:01.860Z,7
2022-07-31T14:00:02.354Z,7
2022-07-31T14:05:01.696Z,7
2022-07-31T14:10:02.078Z,8
2022-07-31T14:15:01.559Z,6
2022-07-31T14:20:02.102Z,5
2022-07-31T14:25:01.457Z,10
2022-07-31T14:30:01.834Z,8
2022-07-31T14:35:07.446Z,7
2022-07-31T14:40:01.616Z,7
2022-07-31T14:45:01.958Z,9
2022-07-31T14:50:06.941Z,7
2022-07-31T14:55:01.627Z,8
2022-07-31T15:00:02.106Z,6
2022-07-31T15:06:39.696Z,6
2022-07-31T15:10:02.079Z,8
2022-07-31T15:15:01.451Z,7
2022-07-31T15:20:01.872Z,6
2022-07-31T15:25:02.221Z,8
2022-07-31T15:30:06.939Z,9
2022-07-31T15:35:02.266Z,8
2022-07-31T15:40:03.727Z,8
2022-07-31T15:45:01.431Z,8
2022-07-31T15:50:01.902Z,7
2022-07-31T15:55:02.365Z,5
2022-07-31T16:00:01.840Z,7
2022-07-31T16:05:11.398Z,5
2022-07-31T16:10:04.671Z,8
2022-07-31T16:15:01.472Z,8
2022-07-31T16:20:01.838Z,6
2022-07-31T16:25:02.186Z,5
2022-07-31T16:30:02.607Z,4
2022-07-31T16:35:01.797Z,9
2022-07-31T16:40:01.440Z,8
2022-07-31T16:45:01.816Z,7
2022-07-31T16:50:02.291Z,6
2022-07-31T16:55:01.634Z,6
2022-07-31T17:00:02.119Z,6
2022-07-31T17:05:01.481Z,6
2022-07-31T17:10:01.863Z,6
2022-07-31T17:15:02.210Z,8
2022-07-31T17:20:01.639Z,6
2022-07-31T17:25:01.982Z,4
2022-07-31T17:30:01.323Z,6
2022-07-31T17:35:01.793Z,5
2022-07-31T17:40:02.169Z,9
2022-07-31T17:45:01.523Z,7
2022-07-31T17:50:02.123Z,9
2022-07-31T17:55:01.501Z,9
2022-07-31T18:00:01.884Z,6
2022-07-31T18:05:02.230Z,6
2022-07-31T18:10:01.735Z,9
2022-07-31T18:15:02.082Z,7
2022-07-31T18:20:01.518Z,7
2022-07-31T18:25:01.868Z,7
2022-07-31T18:30:02.225Z,8
2022-07-31T18:35:01.825Z,7
2022-07-31T18:40:01.843Z,6
2022-07-31T18:45:02.313Z,6
2022-07-31T18:51:00.223Z,5
2022-07-31T18:55:02.283Z,6
2022-07-31T19:00:01.670Z,8
2022-07-31T19:05:02.024Z,6
2022-07-31T19:10:01.532Z,6
2022-07-31T19:15:02.012Z,6
2022-07-31T19:20:02.320Z,8
2022-07-31T19:25:01.889Z,11
2022-07-31T19:30:02.236Z,4
2022-07-31T19:35:01.708Z,6
2022-07-31T19:40:02.107Z,6
2022-07-31T19:45:01.579Z,9
2022-07-31T19:50:01.914Z,7
2022-07-31T19:55:02.380Z,8
2022-07-31T20:00:01.743Z,8
2022-07-31T20:05:02.098Z,6
2022-07-31T20:10:01.617Z,6
2022-07-31T20:15:02.013Z,8
2022-07-31T20:20:15.699Z,5
2022-07-31T20:25:01.595Z,6
2022-07-31T20:30:01.541Z,8
2022-07-31T20:35:02.252Z,8
2022-07-31T20:40:01.664Z,7
2022-07-31T20:45:02.012Z,5
2022-07-31T20:50:01.383Z,3
2022-07-31T20:55:01.742Z,8
2022-07-31T21:00:02.117Z,6
2022-07-31T21:05:02.240Z,6
2022-07-31T21:10:01.750Z,5
2022-07-31T21:15:02.115Z,5
2022-07-31T21:20:02.035Z,6
2022-07-31T21:25:01.393Z,7
2022-07-31T21:30:01.821Z,5
2022-07-31T21:35:02.177Z,6
2022-07-31T21:40:01.583Z,6
2022-07-31T21:45:01.940Z,5
2022-07-31T21:50:01.470Z,5
2022-07-31T21:55:01.817Z,4
2022-07-31T22:00:02.238Z,5
2022-07-31T22:05:01.911Z,4
2022-07-31T22:10:01.436Z,6
2022-07-31T22:15:01.836Z,5
2022-07-31T22:20:02.076Z,4
2022-07-31T22:25:01.563Z,6
2022-07-31T22:30:02.046Z,3
2022-07-31T22:35:01.391Z,5
2022-07-31T22:40:01.771Z,5
2022-07-31T22:45:02.115Z,3
2022-07-31T22:50:01.456Z,4
2022-07-31T22:55:01.794Z,4
2022-07-31T23:00:02.156Z,5
2022-07-31T23:05:01.500Z,7
2022-07-31T23:10:01.888Z,4
2022-07-31T23:15:02.236Z,5
2022-07-31T23:20:01.653Z,5
2022-07-31T23:25:02.022Z,4
2022-07-31T23:30:01.369Z,5
2022-07-31T23:35:01.712Z,4
2022-07-31T23:40:02.082Z,4
2022-07-31T23:45:01.448Z,5
2022-07-31T23:50:01.799Z,3
2022-07-31T23:55:02.177Z,4
